Time;durP1;ratioP1;P1;durP2;ratioP2;P2;SDS_P1;SDS_P2;PMS_P1;PMS_P2;Temp;Humidity;BMP_temperature;BMP_pressure;BME280_temperature;BME280_humidity;BME280_pressure;Samples;Min_cycle;Max_cycle;Signal;HPM_P1;HPM_P2
2023/02/22 00:00:49;;;;;;;20.50;6.25;;;;;;;4.13;100.00;101075.09;4989061;28;20050;-76
2023/02/22 00:03:23;;;;;;;29.48;6.82;;;;;;;4.10;100.00;101077.97;4970385;28;20123;-81
2023/02/22 00:06:04;;;;;;;23.23;6.03;;;;;;;4.09;100.00;101084.19;4987318;28;20121;-79
2023/02/22 00:08:32;;;;;;;31.15;6.82;;;;;;;4.12;100.00;101081.34;4982391;28;20050;-76
2023/02/22 00:11:00;;;;;;;25.58;7.50;;;;;;;4.20;100.00;101089.56;4953943;28;20109;-79
2023/02/22 00:13:28;;;;;;;29.77;7.50;;;;;;;4.26;100.00;101082.13;4968703;28;20372;-76
2023/02/22 00:15:57;;;;;;;24.30;5.95;;;;;;;4.26;100.00;101080.34;4984458;28;20026;-77
2023/02/22 00:18:23;;;;;;;19.30;6.75;;;;;;;4.17;100.00;101071.28;4948307;28;20490;-79
2023/02/22 00:20:48;;;;;;;22.75;6.28;;;;;;;4.11;100.00;101060.31;4985639;28;20030;-77
2023/02/22 00:23:20;;;;;;;27.48;5.95;;;;;;;4.08;100.00;101060.56;4986249;28;20471;-77
2023/02/22 00:25:47;;;;;;;16.20;5.05;;;;;;;3.97;100.00;101051.59;4984307;28;20030;-77
2023/02/22 00:28:14;;;;;;;23.00;6.05;;;;;;;3.86;100.00;101040.13;4985853;28;20188;-79
2023/02/22 00:30:42;;;;;;;39.63;7.60;;;;;;;3.77;100.00;101036.38;4986611;28;20038;-78
2023/02/22 00:33:09;;;;;;;26.23;5.53;;;;;;;3.76;100.00;101050.53;4971197;28;20030;-78
2023/02/22 00:35:34;;;;;;;32.88;6.47;;;;;;;3.70;100.00;101054.47;4971131;28;20389;-77
2023/02/22 00:38:02;;;;;;;18.88;6.43;;;;;;;3.66;100.00;101054.78;4971547;28;20026;-78
2023/02/22 00:40:30;;;;;;;22.63;5.50;;;;;;;3.51;100.00;101046.16;4975302;28;20054;-76
2023/02/22 00:42:56;;;;;;;25.05;7.53;;;;;;;3.42;100.00;101042.41;4974279;28;20030;-78
2023/02/22 00:45:24;;;;;;;28.33;7.95;;;;;;;3.34;100.00;101045.56;4991530;28;20021;-78
2023/02/22 00:47:49;;;;;;;39.03;7.57;;;;;;;3.27;100.00;101044.31;4975368;28;20109;-77
2023/02/22 00:50:18;;;;;;;25.13;7.47;;;;;;;3.16;100.00;101036.28;4972051;28;20046;-76
2023/02/22 00:52:44;;;;;;;33.53;8.07;;;;;;;3.06;100.00;101030.81;4971453;28;20133;-78
2023/02/22 00:55:16;;;;;;;20.40;7.53;;;;;;;3.12;100.00;101051.50;4988125;28;20034;-76
2023/02/22 00:57:41;;;;;;;30.65;8.35;;;;;;;3.06;100.00;101045.81;4987785;28;20041;-78
2023/02/22 01:00:12;;;;;;;29.95;6.75;;;;;;;3.10;100.00;101052.56;4971458;28;20026;-79
2023/02/22 01:02:38;;;;;;;20.00;6.85;;;;;;;3.13;100.00;101052.34;4987299;28;20085;-77
2023/02/22 01:05:06;;;;;;;24.50;6.38;;;;;;;3.11;100.00;101049.84;4971846;28;20045;-79
2023/02/22 01:07:31;;;;;;;25.58;7.15;;;;;;;3.12;100.00;101056.78;4975320;28;20290;-78
2023/02/22 01:09:57;;;;;;;28.03;7.90;;;;;;;3.13;100.00;101053.19;4974511;28;20022;-77
2023/02/22 01:12:22;;;;;;;24.20;7.63;;;;;;;3.19;100.00;101065.13;4973699;28;20289;-80
2023/02/22 01:14:47;;;;;;;25.17;7.73;;;;;;;3.23;100.00;101074.53;4971416;28;20502;-79
2023/02/22 01:17:13;;;;;;;28.03;5.90;;;;;;;3.32;100.00;101079.13;4971390;28;20034;-78
2023/02/22 01:19:41;;;;;;;26.17;6.60;;;;;;;3.29;100.00;101078.50;4956478;28;20065;-78
2023/02/22 01:22:07;;;;;;;22.92;5.45;;;;;;;3.23;100.00;101071.88;4972661;28;20026;-78
2023/02/22 01:24:33;;;;;;;26.42;6.78;;;;;;;3.36;100.00;101077.97;4987448;28;20134;-78
2023/02/22 01:26:59;;;;;;;24.10;7.72;;;;;;;3.40;100.00;101081.25;4989306;28;20561;-80
2023/02/22 01:29:24;;;;;;;20.80;5.50;;;;;;;3.47;100.00;101086.94;4975427;28;20510;-78
2023/02/22 01:31:53;;;;;;;20.17;5.68;;;;;;;3.51;100.00;101097.19;4974425;28;20048;-80
2023/02/22 01:34:19;;;;;;;29.15;6.75;;;;;;;3.53;100.00;101097.06;4976188;28;20026;-77
2023/02/22 01:36:44;;;;;;;28.50;7.93;;;;;;;3.48;100.00;101078.06;4989697;28;20030;-74
2023/02/22 01:39:10;;;;;;;26.17;5.63;;;;;;;3.54;100.00;101088.19;4991474;28;20506;-79
2023/02/22 01:41:36;;;;;;;29.23;6.80;;;;;;;3.53;100.00;101086.50;4991112;28;20042;-78
2023/02/22 01:44:26;;;;;;;17.05;5.00;;;;;;;3.59;100.00;101091.34;4992049;28;20293;-78
2023/02/22 01:46:53;;;;;;;20.38;4.75;;;;;;;3.63;100.00;101087.56;4991534;28;20150;-77
2023/02/22 01:49:19;;;;;;;26.95;5.75;;;;;;;3.67;100.00;101083.72;4990445;28;20253;-75
2023/02/22 01:51:49;;;;;;;23.25;5.38;;;;;;;3.59;100.00;101073.72;4990893;28;20343;-79
2023/02/22 01:54:27;;;;;;;26.75;6.95;;;;;;;3.63;100.00;101077.00;4974796;28;20129;-78
2023/02/22 01:57:00;;;;;;;26.73;5.68;;;;;;;3.64;100.00;101077.81;4990937;28;20129;-77
2023/02/22 01:59:31;;;;;;;25.05;5.63;;;;;;;3.53;100.00;101070.66;4974637;28;20057;-80
2023/02/22 02:01:58;;;;;;;21.48;6.53;;;;;;;3.38;100.00;101056.75;4958507;28;20558;-76
2023/02/22 02:04:25;;;;;;;28.55;5.78;;;;;;;3.26;100.00;101042.63;4992740;28;20026;-80
2023/02/22 02:06:56;;;;;;;21.77;6.70;;;;;;;3.19;100.00;101040.53;4990851;28;20094;-79
2023/02/22 02:09:30;;;;;;;26.13;6.57;;;;;;;3.13;100.00;101041.78;4970626;28;20062;-76
2023/02/22 02:12:03;;;;;;;27.80;6.53;;;;;;;3.07;100.00;101039.59;5001009;28;20034;-77
2023/02/22 02:14:30;;;;;;;28.80;7.68;;;;;;;3.09;100.00;101042.94;4993502;28;20057;-80
2023/02/22 02:17:00;;;;;;;35.40;8.77;;;;;;;2.99;100.00;101031.38;4975151;28;20027;-79
2023/02/22 02:19:39;;;;;;;29.05;6.00;;;;;;;2.94;100.00;101036.97;4991887;28;20114;-79
2023/02/22 02:22:12;;;;;;;20.33;5.50;;;;;;;2.80;100.00;101022.09;4993262;28;20153;-80
2023/02/22 02:24:56;;;;;;;24.38;6.32;;;;;;;2.68;100.00;101015.03;4977102;28;20050;-77
2023/02/22 02:27:26;;;;;;;19.58;5.13;;;;;;;2.58;100.00;101011.34;4995068;28;20049;-75
2023/02/22 02:30:23;;;;;;;23.20;6.32;;;;;;;2.53;100.00;101001.09;4993658;28;20038;-79
2023/02/22 02:32:53;;;;;;;20.33;5.93;;;;;;;2.56;100.00;101005.31;4972220;28;20038;-78
2023/02/22 02:35:36;;;;;;;27.05;7.10;;;;;;;2.48;100.00;101003.19;4990811;28;20049;-78
2023/02/22 02:38:20;;;;;;;20.30;6.22;;;;;;;2.42;100.00;101004.47;4990816;28;20062;-76
2023/02/22 02:41:10;;;;;;;24.35;6.30;;;;;;;2.48;100.00;101009.31;4973199;28;20042;-80
2023/02/22 02:43:58;;;;;;;25.25;5.93;;;;;;;2.54;100.00;101016.78;4954985;28;20490;-79
2023/02/22 02:46:50;;;;;;;27.38;6.60;;;;;;;2.54;100.00;101022.06;4968716;28;20049;-79
2023/02/22 02:49:24;;;;;;;29.73;6.57;;;;;;;2.53;100.00;101023.03;4958267;28;20114;-79
2023/02/22 02:51:52;;;;;;;20.67;5.53;;;;;;;2.49;100.00;101026.81;4977955;28;20125;-79
2023/02/22 02:54:20;;;;;;;28.25;6.85;;;;;;;2.50;100.00;101022.38;4984433;28;20027;-79
2023/02/22 02:56:46;;;;;;;22.52;7.40;;;;;;;2.56;100.00;101036.94;4972990;28;20077;-78
2023/02/22 02:59:31;;;;;;;;;;;;;;;2.64;100.00;101042.53;4972803;28;20050;-77
2023/02/22 03:02:49;;;;;;;21.10;6.28;;;;;;;2.69;100.00;101040.44;4970250;28;20215;-76
2023/02/22 03:05:30;;;;;;;24.23;5.38;;;;;;;2.73;100.00;101039.28;4989267;28;20065;-79
2023/02/22 03:08:23;;;;;;;16.30;5.35;;;;;;;2.74;100.00;101041.81;4971223;28;20081;-79
2023/02/22 03:11:14;;;;;;;20.98;5.93;;;;;;;2.79;100.00;101038.88;4977073;28;20411;-80
2023/02/22 03:14:18;;;;;;;30.15;6.60;;;;;;;2.78;100.00;101038.97;4986892;28;20038;-77
2023/02/22 03:16:50;;;;;;;25.27;6.75;;;;;;;2.70;100.00;101039.50;4937078;28;20066;-77
2023/02/22 03:19:33;;;;;;;23.83;6.93;;;;;;;2.67;100.00;101035.28;4961202;28;20526;-79
2023/02/22 03:22:12;;;;;;;19.25;6.15;;;;;;;2.62;100.00;101021.56;4971192;28;20042;-80
2023/02/22 03:25:06;;;;;;;32.72;7.68;;;;;;;2.53;100.00;101027.47;4972122;28;20065;-79
2023/02/22 03:27:48;;;;;;;26.63;6.72;;;;;;;2.43;100.00;101019.31;4969175;28;20101;-75
2023/02/22 03:30:25;;;;;;;27.40;7.13;;;;;;;2.42;100.00;101020.28;4970922;28;20034;-78
2023/02/22 03:32:58;;;;;;;24.02;5.53;;;;;;;2.31;100.00;101026.25;4972480;28;20044;-77
2023/02/22 03:35:30;;;;;;;25.48;7.20;;;;;;;2.26;100.00;101020.44;4950101;28;20054;-77
2023/02/22 03:38:00;;;;;;;25.80;6.22;;;;;;;2.19;100.00;101007.78;4988232;28;20030;-80
2023/02/22 03:40:32;;;;;;;23.38;6.60;;;;;;;2.27;100.00;101016.00;4988252;28;20027;-78
2023/02/22 03:43:06;;;;;;;20.85;6.80;;;;;;;2.32;100.00;101024.47;4971602;28;20069;-78
2023/02/22 03:45:35;;;;;;;25.85;7.13;;;;;;;2.33;100.00;101026.16;4987840;28;20030;-80
2023/02/22 03:48:09;;;;;;;19.15;5.70;;;;;;;2.40;100.00;101032.69;4972807;28;20034;-80
2023/02/22 03:50:36;;;;;;;18.95;5.20;;;;;;;2.44;100.00;101028.91;4972390;28;20497;-79
2023/02/22 03:53:03;;;;;;;24.08;6.72;;;;;;;2.46;100.00;101026.19;4971876;28;20200;-78
2023/02/22 03:55:32;;;;;;;21.98;7.35;;;;;;;2.47;100.00;101023.44;4971483;28;20120;-79
2023/02/22 03:58:02;;;;;;;24.63;6.70;;;;;;;2.52;100.00;101029.22;4971459;28;20030;-77
2023/02/22 04:00:32;;;;;;;25.02;6.18;;;;;;;2.59;100.00;101034.09;4995866;28;20091;-78
2023/02/22 04:02:59;;;;;;;26.33;5.35;;;;;;;2.64;100.00;101032.81;4972204;28;20616;-79
2023/02/22 04:05:25;;;;;;;24.67;8.45;;;;;;;2.71;100.00;101035.91;4972410;28;20045;-76
2023/02/22 04:07:52;;;;;;;21.38;7.88;;;;;;;2.78;100.00;101039.78;4956600;28;20045;-76
2023/02/22 04:10:18;;;;;;;35.53;8.13;;;;;;;2.80;100.00;101034.44;4971133;28;20462;-77
2023/02/22 04:12:43;;;;;;;28.83;10.05;;;;;;;2.87;100.00;101039.16;4970785;28;20038;-78
2023/02/22 04:15:14;;;;;;;27.23;8.33;;;;;;;2.86;100.00;101032.22;4988017;28;20033;-77
2023/02/22 04:17:41;;;;;;;19.40;7.63;;;;;;;2.94;100.00;101040.44;4987949;28;20034;-77
2023/02/22 04:20:09;;;;;;;25.60;6.95;;;;;;;2.98;100.00;101038.44;4955722;28;20054;-78
2023/02/22 04:22:42;;;;;;;20.48;6.20;;;;;;;2.99;100.00;101037.47;4955823;28;20089;-76
2023/02/22 04:25:08;;;;;;;25.63;6.95;;;;;;;3.01;100.00;101040.03;4987892;28;20038;-77
2023/02/22 04:27:33;;;;;;;32.72;7.50;;;;;;;2.99;100.00;101036.63;4987815;28;20030;-75
2023/02/22 04:29:59;;;;;;;27.10;6.32;;;;;;;3.02;100.00;101029.38;4971250;28;20034;-75
2023/02/22 04:32:26;;;;;;;21.67;7.82;;;;;;;3.07;100.00;101021.97;4971126;28;20402;-76
2023/02/22 04:34:52;;;;;;;25.42;8.07;;;;;;;3.11;100.00;101039.28;4971326;28;20035;-74
2023/02/22 04:37:17;;;;;;;27.33;6.63;;;;;;;3.06;100.00;101024.72;4987201;28;20073;-75
2023/02/22 04:39:42;;;;;;;18.97;5.80;;;;;;;3.06;100.00;101032.63;4988233;28;20638;-76
2023/02/22 04:42:08;;;;;;;22.27;7.17;;;;;;;3.15;100.00;101039.91;4971067;28;20284;-76
2023/02/22 04:44:33;;;;;;;19.33;5.82;;;;;;;3.20;100.00;101048.31;4955047;28;20698;-76
2023/02/22 04:46:59;;;;;;;15.93;5.13;;;;;;;3.21;100.00;101050.03;4970968;28;20053;-76
2023/02/22 04:49:24;;;;;;;16.67;5.10;;;;;;;3.23;100.00;101048.13;4971859;28;20095;-75
2023/02/22 04:51:51;;;;;;;19.27;6.53;;;;;;;3.28;100.00;101050.44;4974645;28;20030;-75
2023/02/22 04:54:21;;;;;;;16.77;6.28;;;;;;;3.22;100.00;101046.44;4983586;28;20068;-78
2023/02/22 04:56:47;;;;;;;18.02;5.80;;;;;;;3.25;100.00;101040.94;4970893;28;20062;-74
2023/02/22 04:59:12;;;;;;;15.68;6.35;;;;;;;3.30;100.00;101044.09;4958768;28;20039;-78
2023/02/22 05:01:41;;;;;;;20.38;5.88;;;;;;;3.32;100.00;101050.09;4971251;28;20117;-74
2023/02/22 05:04:07;;;;;;;26.30;6.43;;;;;;;3.37;100.00;101042.72;4972437;28;20113;-77
2023/02/22 05:06:32;;;;;;;18.73;6.38;;;;;;;3.33;100.00;101038.59;4988540;28;20289;-76
2023/02/22 05:08:58;;;;;;;26.95;5.80;;;;;;;3.37;100.00;101045.38;4987306;28;20484;-77
2023/02/22 05:11:23;;;;;;;27.27;7.30;;;;;;;3.43;100.00;101046.72;4970896;28;20109;-78
2023/02/22 05:13:49;;;;;;;17.53;5.73;;;;;;;3.65;100.00;101061.84;4970998;28;20837;-77
2023/02/22 05:16:15;;;;;;;24.48;5.78;;;;;;;3.61;100.00;101046.38;4959929;28;20030;-76
2023/02/22 05:18:40;;;;;;;23.27;6.38;;;;;;;3.52;100.00;101042.59;4987166;28;20042;-76
2023/02/22 05:21:05;;;;;;;19.73;6.17;;;;;;;3.47;100.00;101034.16;4970940;28;20038;-76
2023/02/22 05:23:32;;;;;;;18.63;5.50;;;;;;;3.49;100.00;101035.72;4987449;28;20293;-74
2023/02/22 05:25:57;;;;;;;22.60;6.32;;;;;;;3.48;100.00;101031.38;4969928;28;20053;-76
2023/02/22 05:28:23;;;;;;;23.47;6.40;;;;;;;3.46;100.00;101030.66;4973644;28;20027;-79
2023/02/22 05:30:48;;;;;;;20.70;6.27;;;;;;;3.48;100.00;101030.53;4990889;28;20653;-77
2023/02/22 05:33:13;;;;;;;27.00;6.80;;;;;;;3.45;100.00;101028.13;4992336;28;20266;-76
2023/02/22 05:35:39;;;;;;;14.10;4.73;;;;;;;3.50;100.00;101036.56;4990697;28;20567;-78
2023/02/22 05:38:05;;;;;;;25.03;5.77;;;;;;;3.48;100.00;101041.09;4974837;28;20038;-76
2023/02/22 05:40:31;;;;;;;22.17;6.60;;;;;;;3.52;100.00;101037.31;4974762;28;20285;-79
2023/02/22 05:42:56;;;;;;;18.95;7.68;;;;;;;3.53;100.00;101045.09;4994301;28;20064;-77
2023/02/22 05:45:25;;;;;;;18.33;5.93;;;;;;;3.55;100.00;101043.19;4966922;28;20106;-76
2023/02/22 05:47:53;;;;;;;18.60;5.07;;;;;;;3.55;100.00;101045.00;4990436;28;20045;-78
2023/02/22 05:50:20;;;;;;;25.90;7.88;;;;;;;3.51;100.00;101043.50;4990513;28;20042;-76
2023/02/22 05:52:47;;;;;;;24.08;7.07;;;;;;;3.47;100.00;101044.72;4985627;28;20026;-77
2023/02/22 05:55:15;;;;;;;16.70;6.53;;;;;;;3.44;100.00;101045.78;5020869;23;20045;-83
2023/02/22 05:57:41;;;;;;;33.78;8.80;;;;;;;3.36;100.00;101041.03;5004379;28;20046;-82
2023/02/22 06:00:07;;;;;;;24.92;7.35;;;;;;;3.43;100.00;101051.16;5008283;28;20486;-85
2023/02/22 06:02:39;;;;;;;21.52;6.95;;;;;;;3.42;100.00;101052.09;5009546;28;20045;-84
2023/02/22 06:05:04;;;;;;;18.95;8.05;;;;;;;3.42;100.00;101044.16;4982022;28;20033;-83
2023/02/22 06:07:30;;;;;;;25.30;9.85;;;;;;;3.37;100.00;101050.63;5019738;28;20029;-83
2023/02/22 06:09:55;;;;;;;24.73;8.10;;;;;;;3.37;100.00;101042.72;4992477;28;20681;-84
2023/02/22 06:12:20;;;;;;;22.55;7.68;;;;;;;3.40;100.00;101048.75;4997596;28;20576;-84
2023/02/22 06:14:46;;;;;;;29.00;10.70;;;;;;;3.39;100.00;101045.22;4993690;28;20128;-84
2023/02/22 06:17:14;;;;;;;26.53;8.33;;;;;;;3.43;100.00;101054.63;4996410;28;20030;-83
2023/02/22 06:19:39;;;;;;;30.50;9.82;;;;;;;3.53;100.00;101050.38;4989888;28;20200;-83
2023/02/22 06:22:05;;;;;;;26.27;9.63;;;;;;;3.63;100.00;101050.59;5007819;28;20065;-86
2023/02/22 06:24:53;;;;;;;32.47;10.18;;;;;;;3.64;100.00;101054.06;5010827;28;20119;-84
2023/02/22 06:27:19;;;;;;;36.53;10.10;;;;;;;3.67;100.00;101053.81;5031367;28;20087;-83
2023/02/22 06:29:45;;;;;;;25.83;9.52;;;;;;;3.71;100.00;101057.94;4995661;28;20118;-83
2023/02/22 06:32:11;;;;;;;26.90;10.20;;;;;;;3.72;100.00;101070.19;4989447;28;20033;-85
2023/02/22 06:34:36;;;;;;;31.48;10.25;;;;;;;3.74;100.00;101063.84;5009952;28;20422;-83
2023/02/22 06:37:02;;;;;;;33.57;11.30;;;;;;;3.81;100.00;101073.00;5007136;28;20120;-84
2023/02/22 06:39:27;;;;;;;39.37;11.07;;;;;;;3.81;100.00;101043.94;5031423;28;20344;-81
2023/02/22 06:41:55;;;;;;;31.17;10.20;;;;;;;3.96;100.00;101060.50;5010901;28;20490;-82
2023/02/22 06:44:20;;;;;;;25.88;8.25;;;;;;;4.01;100.00;101066.28;5000214;28;20029;-84
2023/02/22 06:46:48;;;;;;;28.95;8.98;;;;;;;4.13;100.00;101066.34;5020642;28;20042;-82
2023/02/22 06:49:13;;;;;;;37.08;9.85;;;;;;;4.13;100.00;101058.41;4997490;28;20042;-82
2023/02/22 06:51:38;;;;;;;29.45;10.32;;;;;;;4.16;100.00;101055.53;4997300;28;20033;-85
2023/02/22 06:54:04;;;;;;;25.83;10.30;;;;;;;4.29;100.00;101066.06;4997903;28;20049;-84
2023/02/22 06:56:30;;;;;;;30.05;10.00;;;;;;;4.33;100.00;101065.72;4996995;28;20359;-84
2023/02/22 06:58:55;;;;;;;35.27;10.87;;;;;;;4.34;100.00;101066.56;5009584;28;20061;-85
2023/02/22 07:01:21;;;;;;;30.50;8.60;;;;;;;4.38;100.00;101058.28;5015388;28;20029;-85
2023/02/22 07:03:48;;;;;;;24.20;8.65;;;;;;;4.47;100.00;101061.19;4989556;28;20037;-82
2023/02/22 07:06:14;;;;;;;26.25;9.77;;;;;;;4.52;100.00;101059.03;5013102;28;20057;-81
2023/02/22 07:08:39;;;;;;;22.87;9.57;;;;;;;4.57;100.00;101051.59;5008778;28;20063;-82
2023/02/22 07:11:04;;;;;;;24.37;8.10;;;;;;;4.60;100.00;101043.44;5025620;28;20033;-79
2023/02/22 07:13:30;;;;;;;34.17;8.87;;;;;;;4.64;100.00;101050.19;5028002;28;20288;-80
2023/02/22 07:15:55;;;;;;;26.10;8.00;;;;;;;4.68;100.00;101050.78;4994826;28;20025;-82
2023/02/22 07:18:21;;;;;;;32.10;8.67;;;;;;;4.75;100.00;101054.63;5023245;28;20072;-81
2023/02/22 07:20:46;;;;;;;36.13;9.65;;;;;;;4.83;100.00;101060.19;4993228;28;20036;-83
2023/02/22 07:23:14;;;;;;;34.03;8.50;;;;;;;4.87;100.00;101051.06;4988658;28;20038;-82
2023/02/22 07:25:39;;;;;;;28.05;8.23;;;;;;;4.93;100.00;101057.69;4998172;28;20092;-79
2023/02/22 07:28:04;;;;;;;23.90;7.45;;;;;;;5.01;100.00;101056.13;5000592;28;20723;-79
2023/02/22 07:30:32;;;;;;;29.53;8.27;;;;;;;5.03;100.00;101058.66;5009847;28;20675;-78
2023/02/22 07:33:07;;;;;;;22.98;8.07;;;;;;;5.04;100.00;101061.19;4982631;28;20021;-82
2023/02/22 07:35:45;;;;;;;36.15;8.13;;;;;;;5.01;100.00;101055.28;5005504;28;20034;-81
2023/02/22 07:38:11;;;;;;;33.90;9.18;;;;;;;5.04;100.00;101055.06;5011181;28;20037;-82
2023/02/22 07:40:37;;;;;;;26.67;8.48;;;;;;;5.07;100.00;101060.94;4995299;28;20128;-82
2023/02/22 07:43:12;;;;;;;36.30;9.32;;;;;;;5.19;100.00;101053.84;5027745;28;20029;-83
2023/02/22 07:45:37;;;;;;;37.00;9.25;;;;;;;5.13;100.00;101041.09;4994911;28;20509;-81
2023/02/22 07:48:04;;;;;;;24.90;9.77;;;;;;;5.25;100.00;101052.53;5008948;28;20039;-84
2023/02/22 07:50:31;;;;;;;28.30;9.65;;;;;;;5.13;100.00;101035.81;5008590;28;20446;-82
2023/02/22 07:52:58;;;;;;;26.17;9.15;;;;;;;5.19;100.00;101042.41;5001033;28;20107;-81
2023/02/22 07:55:26;;;;;;;26.58;9.82;;;;;;;5.26;100.00;101047.09;4995517;28;20048;-83
2023/02/22 07:57:54;;;;;;;27.75;10.27;;;;;;;5.32;100.00;101048.44;4994358;28;20029;-80
2023/02/22 08:00:29;;;;;;;27.52;9.07;;;;;;;5.22;100.00;101036.88;4993864;28;20116;-78
2023/02/22 08:02:55;;;;;;;28.35;9.15;;;;;;;5.19;100.00;101042.41;4994094;28;20048;-78
2023/02/22 08:05:23;;;;;;;27.35;9.20;;;;;;;5.27;100.00;101050.63;4995172;28;20037;-83
2023/02/22 08:07:49;;;;;;;30.35;9.07;;;;;;;5.29;100.00;101038.06;5008360;28;20052;-81
2023/02/22 08:10:16;;;;;;;31.90;8.38;;;;;;;5.33;100.00;101041.34;4993538;28;20045;-80
2023/02/22 08:12:41;;;;;;;31.30;7.97;;;;;;;5.30;100.00;101039.78;4994653;28;20490;-83
2023/02/22 08:15:08;;;;;;;33.97;9.50;;;;;;;5.26;100.00;101033.03;5010062;28;20044;-82
2023/02/22 08:17:33;;;;;;;30.60;7.55;;;;;;;5.27;100.00;101034.72;4993317;28;20044;-82
2023/02/22 08:19:59;;;;;;;22.47;8.00;;;;;;;5.37;100.00;101045.44;5011101;28;20041;-80
2023/02/22 08:22:29;;;;;;;25.33;9.15;;;;;;;5.33;100.00;101033.38;4996709;28;20040;-80
2023/02/22 08:24:54;;;;;;;29.08;7.05;;;;;;;5.33;100.00;101028.94;4994853;28;20088;-83
2023/02/22 08:27:25;;;;;;;25.05;8.43;;;;;;;5.47;100.00;101036.63;5019113;28;20512;-81
2023/02/22 08:29:51;;;;;;;31.13;8.38;;;;;;;5.43;100.00;101037.84;4980484;28;20072;-83
2023/02/22 08:32:16;;;;;;;27.95;8.98;;;;;;;5.33;100.00;101018.34;4992021;28;20053;-82
2023/02/22 08:34:42;;;;;;;24.25;7.40;;;;;;;5.44;100.00;101034.22;5008738;28;20037;-82
2023/02/22 08:37:08;;;;;;;36.45;7.53;;;;;;;5.38;100.00;101032.06;5012535;28;20026;-80
2023/02/22 08:39:33;;;;;;;30.35;8.70;;;;;;;5.28;100.00;101018.72;4999435;28;20045;-78
2023/02/22 08:41:58;;;;;;;34.40;9.37;;;;;;;5.24;100.00;101019.06;5021551;28;20064;-83
2023/02/22 08:44:24;;;;;;;23.98;8.02;;;;;;;5.25;100.00;101024.25;5010177;28;20100;-83
2023/02/22 08:46:50;;;;;;;33.00;8.40;;;;;;;5.39;100.00;101027.63;5003300;28;20045;-79
2023/02/22 08:49:16;;;;;;;26.55;7.10;;;;;;;5.39;100.00;101028.47;5004269;28;20033;-81
2023/02/22 08:51:41;;;;;;;24.17;7.63;;;;;;;5.39;100.00;101017.88;5009490;28;20038;-82
2023/02/22 08:54:07;;;;;;;31.23;8.53;;;;;;;5.39;100.00;101019.69;5006682;28;20512;-84
2023/02/22 08:56:32;;;;;;;25.55;6.70;;;;;;;5.48;100.00;101029.53;4992686;28;20375;-79
2023/02/22 08:58:57;;;;;;;26.97;7.23;;;;;;;5.50;100.00;101017.84;4993388;23;20046;-76
2023/02/22 09:01:23;;;;;;;27.53;7.13;;;;;;;5.41;100.00;101015.09;5009344;28;20418;-74
2023/02/22 09:03:49;;;;;;;16.67;6.47;;;;;;;5.36;100.00;101006.66;5006853;28;20437;-73
2023/02/22 09:06:15;;;;;;;19.85;6.32;;;;;;;5.48;100.00;101011.00;4992756;28;20518;-74
2023/02/22 09:08:41;;;;;;;23.38;6.60;;;;;;;5.51;100.00;101002.81;4992620;28;20034;-74
2023/02/22 09:11:06;;;;;;;28.77;8.03;;;;;;;5.59;100.00;101003.00;4976681;28;20037;-74
2023/02/22 09:13:31;;;;;;;30.63;7.70;;;;;;;5.71;100.00;101001.16;4987821;28;20282;-74
2023/02/22 09:15:57;;;;;;;21.63;6.45;;;;;;;5.63;100.00;100987.72;4992534;28;20024;-71
2023/02/22 09:18:22;;;;;;;22.80;6.83;;;;;;;5.74;100.00;100990.34;4992644;28;20534;-70
2023/02/22 09:20:47;;;;;;;24.30;7.07;;;;;;;5.88;100.00;100986.56;4987556;28;20069;-71
2023/02/22 09:23:13;;;;;;;22.07;7.33;;;;;;;5.86;100.00;100977.91;4995734;28;20038;-74
2023/02/22 09:25:39;;;;;;;19.30;6.57;;;;;;;5.90;100.00;100968.75;4978948;28;20476;-74
2023/02/22 09:28:05;;;;;;;;;;;;;;;5.97;100.00;100979.69;4986363;28;20124;-73
2023/02/22 09:30:33;;;;;;;23.33;6.75;;;;;;;5.86;100.00;100962.00;4992203;28;20512;-73
2023/02/22 09:33:10;;;;;;;20.52;6.30;;;;;;;5.90;100.00;100966.09;4997464;28;20553;-73
2023/02/22 09:35:45;;;;;;;24.33;6.93;;;;;;;5.93;100.00;100964.00;5001939;28;20025;-73
2023/02/22 09:38:13;;;;;;;19.63;6.70;;;;;;;6.11;100.00;100974.06;4984760;28;20049;-73
2023/02/22 09:40:45;;;;;;;20.20;7.68;;;;;;;6.27;100.00;100977.13;4996677;28;20060;-74
2023/02/22 09:43:23;;;;;;;21.25;7.35;;;;;;;6.07;100.00;100960.25;4996071;28;20038;-74
2023/02/22 09:46:06;;;;;;;28.88;7.63;;;;;;;6.05;100.00;100956.03;4991961;28;20034;-74
2023/02/22 09:48:35;;;;;;;31.73;8.77;;;;;;;6.21;100.00;100959.09;4971804;28;20072;-70
2023/02/22 09:51:07;;;;;;;24.05;6.70;;;;;;;6.02;100.00;100951.00;4998807;28;20044;-72
2023/02/22 09:53:43;;;;;;;21.38;7.88;;;;;;;6.05;100.00;100956.03;4995173;28;20121;-74
2023/02/22 09:56:14;;;;;;;24.73;7.85;;;;;;;6.21;100.00;100956.44;4994714;28;20030;-74
2023/02/22 09:58:44;;;;;;;23.38;7.53;;;;;;;6.34;100.00;100969.50;4986267;28;20061;-73
2023/02/22 10:01:43;;;;;;;19.15;7.47;;;;;;;6.39;100.00;100958.50;4970498;28;20084;-73
2023/02/22 10:04:29;;;;;;;28.33;8.95;;;;;;;6.53;100.00;100960.81;4997754;28;20030;-72
2023/02/22 10:07:04;;;;;;;29.50;7.30;;;;;;;6.53;100.00;100952.84;4987828;28;20049;-73
2023/02/22 10:09:33;;;;;;;21.65;7.32;;;;;;;6.69;100.00;100945.25;4986189;28;20050;-73
2023/02/22 10:12:29;;;;;;;24.73;7.32;;;;;;;6.82;100.00;100949.53;4994279;28;20398;-74
2023/02/22 10:15:27;;;;;;;24.25;7.22;;;;;;;6.67;100.00;100931.31;4992321;28;20314;-73
2023/02/22 10:18:15;;;;;;;28.33;8.05;;;;;;;6.95;100.00;100934.19;4992779;28;20031;-74
2023/02/22 10:20:52;;;;;;;26.90;8.40;;;;;;;6.83;100.00;100922.84;4983231;28;20046;-72
2023/02/22 10:23:35;;;;;;;37.90;8.45;;;;;;;7.14;100.00;100928.97;4991641;28;20049;-74
2023/02/22 10:26:14;;;;;;;22.02;6.93;;;;;;;6.89;100.00;100913.50;4995478;28;20450;-73
2023/02/22 10:29:05;;;;;;;25.92;6.93;;;;;;;6.81;100.00;100903.53;4979443;28;20460;-74
2023/02/22 10:31:35;;;;;;;22.45;8.07;;;;;;;6.81;100.00;100902.72;4941839;28;20038;-72
2023/02/22 10:34:04;;;;;;;21.23;6.68;;;;;;;7.10;100.00;100916.94;4993219;28;20129;-73
2023/02/22 10:36:30;;;;;;;21.10;7.78;;;;;;;6.79;100.00;100902.88;4989728;28;20302;-73
2023/02/22 10:38:59;;;;;;;22.00;7.70;;;;;;;7.14;100.00;100913.03;4982646;28;20044;-74
2023/02/22 10:41:30;;;;;;;21.38;7.75;;;;;;;6.83;100.00;100892.81;4990796;28;20026;-74
2023/02/22 10:43:56;;;;;;;23.33;7.85;;;;;;;7.13;100.00;100911.34;4991755;28;20057;-74
2023/02/22 10:46:24;;;;;;;27.02;8.32;;;;;;;7.06;100.00;100891.63;4991005;28;20130;-74
2023/02/22 10:48:54;;;;;;;30.08;9.07;;;;;;;7.18;100.00;100890.53;4986750;28;20045;-72
2023/02/22 10:51:19;;;;;;;21.23;8.00;;;;;;;7.44;100.00;100895.31;4989401;28;20455;-72
2023/02/22 10:53:56;;;;;;;19.97;8.87;;;;;;;7.22;100.00;100871.69;4986138;28;20022;-74
2023/02/22 10:56:25;;;;;;;24.00;9.40;;;;;;;7.09;100.00;100870.09;4964389;28;20697;-73
2023/02/22 10:58:56;;;;;;;28.35;10.32;;;;;;;6.90;100.00;100867.41;4986841;28;20819;-72
2023/02/22 11:01:36;;;;;;;26.00;9.85;;;;;;;6.95;100.00;100883.75;4969368;28;20073;-74
2023/02/22 11:04:11;;;;;;;30.08;10.35;;;;;;;7.01;100.00;100875.25;4971549;28;20518;-74
2023/02/22 11:06:37;;;;;;;27.45;9.90;;;;;;;7.17;100.00;100880.88;4953902;28;20515;-75
2023/02/22 11:09:09;;;;;;;34.38;9.52;;;;;;;7.39;100.00;100885.09;4972230;28;20041;-75
2023/02/22 11:11:35;;;;;;;24.17;8.35;;;;;;;7.23;100.00;100873.34;4993263;28;20053;-73
2023/02/22 11:14:02;;;;;;;26.63;10.00;;;;;;;7.35;100.00;100858.94;4991903;28;20034;-71
2023/02/22 11:16:51;;;;;;;19.45;8.82;;;;;;;7.45;100.00;100857.16;4990167;28;20038;-71
2023/02/22 11:19:21;;;;;;;22.55;9.82;;;;;;;7.34;100.00;100854.63;4993844;28;20125;-75
2023/02/22 11:21:55;;;;;;;29.55;10.63;;;;;;;7.56;100.00;100857.03;4989569;28;20044;-72
2023/02/22 11:24:23;;;;;;;42.00;10.02;;;;;;;7.83;100.00;100855.44;4979371;28;20463;-74
2023/02/22 11:26:53;;;;;;;23.27;9.25;;;;;;;7.58;100.00;100825.81;4969640;28;20065;-71
2023/02/22 11:29:35;;;;;;;29.15;9.20;;;;;;;7.38;100.00;100792.28;4989985;28;20157;-71